Vanquish — PHCU — position and weather

sailwx.info

Track history (hours):
 
Tides and Currents Weather Stations Pressure Air Temp Water Temp Dewpoint Dewpoint Depression Visibility Wind Speed Wind Dir Waves Ship Positions

Vanquish

Last reported at 2016-Sep-29 08:33 UTC. Time now 2016-Sep-30 05:02 UTC.
Position N 57°45' E 010°52'.

MMSI: 246138952.

Date/timePositionNaut miles runAvg speedWind from/ knotsBaromVisibWave heightAir tempDewpointWater temp
2016-Sep-29 08:33N 57°45' E 010°52'1111.3
2016-Sep-29 07:33N 57°38' E 011°08'8812.6
2016-Sep-29 00:33N 56°16' E 012°10'3210.8
2016-Sep-28 21:33N 55°50' E 012°44'2010.1
2016-Sep-28 19:33N 55°30' E 012°42'4310.6
2016-Sep-28 15:29N 54°58' E 013°33'15311.0
2016-Sep-28 01:33N 54°56' E 017°60'2613.1
2016-Sep-27 23:33N 54°50' E 018°44'19 4.6
2016-Sep-27 19:33N 54°33' E 018°30'0 0.0
2016-Sep-27 14:33N 54°33' E 018°30'0 0.0
2016-Sep-27 13:33N 54°33' E 018°30'0 0.0
2016-Sep-27 10:33N 54°33' E 018°30'110 7.8
2016-Sep-26 20:33N 55°18' E 015°36'1312.8
2016-Sep-26 19:33N 55°21' E 015°15'4711.9
2016-Sep-26 15:33N 55°11' E 013°53'2512.4
2016-Sep-26 13:34N 55°13' E 013°10'2010.2
2016-Sep-26 11:34N 55°24' E 012°39'3511.8
2016-Sep-26 08:33N 55°59' E 012°40'7011.7
2016-Sep-26 02:33N 57°01' E 011°40'1212.1
2016-Sep-26 01:33N 57°13' E 011°33'1111.5
2016-Sep-26 00:34N 57°23' E 011°26'  
2016-Sep-23 19:34N 54°47' W 000°48'44111.3
2016-Sep-22 04:34N 57°15' E 011°35'1413.2
2016-Sep-22 03:30N 57°02' E 011°44'4912.3
2016-Sep-21 23:32N 56°16' E 012°13'1212.7
2016-Sep-21 22:34N 56°08' E 012°31'3712.2
2016-Sep-21 19:33N 55°32' E 012°43'30 9.9
2016-Sep-21 16:32N 55°15' E 013°25'15912.2
2016-Sep-21 03:32N 55°02' E 018°02'1211.5
2016-Sep-21 02:32N 54°59' E 018°22'27 3.0
2016-Sep-20 17:32N 54°33' E 018°30'0 0.0
2016-Sep-20 14:32N 54°33' E 018°30'0 0.0
2016-Sep-20 13:32N 54°33' E 018°30'0 0.0
2016-Sep-20 10:32N 54°33' E 018°30'0 0.0
2016-Sep-20 08:32N 54°33' E 018°30'0 0.0
2016-Sep-20 07:32N 54°33' E 018°30'0 0.2
2016-Sep-20 06:33N 54°33' E 018°31'21 5.3
2016-Sep-20 02:33N 54°53' E 018°41'3110.1
2016-Sep-19 23:33N 55°03' E 017°51'7310.1
2016-Sep-19 16:19N 55°17' E 015°45'2011.4
2016-Sep-19 14:33N 55°21' E 015°11'1212.1
2016-Sep-19 13:33N 55°23' E 014°50'1110.8
2016-Sep-19 12:33N 55°18' E 014°32'1111.2
2016-Sep-19 11:33N 55°11' E 014°17'  
Track history (hours):
 
Tides and Currents Weather Stations Pressure Air Temp Water Temp Dewpoint Dewpoint Depression Visibility Wind Speed Wind Dir Waves Ship Positions

Vanquish

Last reported at 2016-Sep-29 08:33 UTC. Time now 2016-Sep-30 05:02 UTC.
Position N 57°45' E 010°52'.

MMSI: 246138952.

Date/timePositionNaut miles runAvg speedWind from/ knotsBaromVisibWave heightAir tempDewpointWater temp
2016-Sep-29 08:33N 57°45' E 010°52'1111.3
2016-Sep-29 07:33N 57°38' E 011°08'8812.6
2016-Sep-29 00:33N 56°16' E 012°10'3210.8
2016-Sep-28 21:33N 55°50' E 012°44'2010.1
2016-Sep-28 19:33N 55°30' E 012°42'4310.6
2016-Sep-28 15:29N 54°58' E 013°33'15311.0
2016-Sep-28 01:33N 54°56' E 017°60'2613.1
2016-Sep-27 23:33N 54°50' E 018°44'19 4.6
2016-Sep-27 19:33N 54°33' E 018°30'0 0.0
2016-Sep-27 14:33N 54°33' E 018°30'0 0.0
2016-Sep-27 13:33N 54°33' E 018°30'0 0.0
2016-Sep-27 10:33N 54°33' E 018°30'110 7.8
2016-Sep-26 20:33N 55°18' E 015°36'1312.8
2016-Sep-26 19:33N 55°21' E 015°15'4711.9
2016-Sep-26 15:33N 55°11' E 013°53'2512.4
2016-Sep-26 13:34N 55°13' E 013°10'2010.2
2016-Sep-26 11:34N 55°24' E 012°39'3511.8
2016-Sep-26 08:33N 55°59' E 012°40'7011.7
2016-Sep-26 02:33N 57°01' E 011°40'1212.1
2016-Sep-26 01:33N 57°13' E 011°33'1111.5
2016-Sep-26 00:34N 57°23' E 011°26'  
2016-Sep-23 19:34N 54°47' W 000°48'44111.3
2016-Sep-22 04:34N 57°15' E 011°35'1413.2
2016-Sep-22 03:30N 57°02' E 011°44'4912.3
2016-Sep-21 23:32N 56°16' E 012°13'1212.7
2016-Sep-21 22:34N 56°08' E 012°31'3712.2
2016-Sep-21 19:33N 55°32' E 012°43'30 9.9
2016-Sep-21 16:32N 55°15' E 013°25'15912.2
2016-Sep-21 03:32N 55°02' E 018°02'1211.5
2016-Sep-21 02:32N 54°59' E 018°22'27 3.0
2016-Sep-20 17:32N 54°33' E 018°30'0 0.0
2016-Sep-20 14:32N 54°33' E 018°30'0 0.0
2016-Sep-20 13:32N 54°33' E 018°30'0 0.0
2016-Sep-20 10:32N 54°33' E 018°30'0 0.0
2016-Sep-20 08:32N 54°33' E 018°30'0 0.0
2016-Sep-20 07:32N 54°33' E 018°30'0 0.2
2016-Sep-20 06:33N 54°33' E 018°31'21 5.3
2016-Sep-20 02:33N 54°53' E 018°41'3110.1
2016-Sep-19 23:33N 55°03' E 017°51'7310.1
2016-Sep-19 16:19N 55°17' E 015°45'2011.4
2016-Sep-19 14:33N 55°21' E 015°11'1212.1
2016-Sep-19 13:33N 55°23' E 014°50'1110.8
2016-Sep-19 12:33N 55°18' E 014°32'1111.2
2016-Sep-19 11:33N 55°11' E 014°17'  

Dump ship's entire track history